Time;durP1;ratioP1;P1;durP2;ratioP2;P2;SDS_P1;SDS_P2;PMS_P1;PMS_P2;Temp;Humidity;BMP_temperature;BMP_pressure;BME280_temperature;BME280_humidity;BME280_pressure;Samples;Min_cycle;Max_cycle;Signal;HPM_P1;HPM_P2
2023/11/24 00:00:31;;;;;;;19.10;9.40;;;;;;;5.29;81.28;99106.98;124253;1109;104191;-81
2023/11/24 00:03:24;;;;;;;18.27;8.87;;;;;;;5.28;80.97;99098.27;124315;1108;104195;-80
2023/11/24 00:05:56;;;;;;;18.63;8.50;;;;;;;5.28;80.97;99103.47;124293;1106;101934;-79
2023/11/24 00:08:28;;;;;;;19.13;8.67;;;;;;;5.27;80.95;99095.65;123968;1109;104274;-78
2023/11/24 00:10:59;;;;;;;19.17;9.27;;;;;;;5.26;81.27;99099.95;124120;1109;104294;-79
2023/11/24 00:13:31;;;;;;;19.37;8.70;;;;;;;5.26;81.39;99086.94;124074;1105;104191;-79
2023/11/24 00:16:04;;;;;;;19.13;8.33;;;;;;;5.26;81.30;99086.94;123905;1109;104201;-79
2023/11/24 00:18:37;;;;;;;20.17;9.20;;;;;;;5.24;80.94;99080.81;124084;1109;104201;-79
2023/11/24 00:21:09;;;;;;;19.47;8.03;;;;;;;5.25;81.24;99071.28;124168;1106;102025;-78
2023/11/24 00:23:41;;;;;;;17.73;7.90;;;;;;;5.24;81.16;99061.73;124139;1108;104354;-79
2023/11/24 00:26:12;;;;;;;20.50;8.20;;;;;;;5.24;80.73;99060.01;124185;1108;104236;-78
2023/11/24 00:28:49;;;;;;;18.23;8.20;;;;;;;5.24;80.70;99052.20;124133;1109;104300;-79
2023/11/24 00:31:21;;;;;;;16.70;7.67;;;;;;;5.25;81.14;99042.67;124246;1108;102141;-79
2023/11/24 00:33:55;;;;;;;18.27;8.17;;;;;;;5.25;80.70;99047.87;124195;1109;102558;-79
2023/11/24 00:36:28;;;;;;;16.83;7.77;;;;;;;5.26;80.90;99047.06;124113;1109;104211;-80
2023/11/24 00:38:59;;;;;;;17.50;7.60;;;;;;;5.26;80.67;99036.66;124035;1109;101871;-79
2023/11/24 00:41:32;;;;;;;18.13;8.17;;;;;;;5.25;80.80;99027.98;124345;1109;104204;-80
2023/11/24 00:44:03;;;;;;;18.67;7.80;;;;;;;5.25;81.16;99020.17;124290;1108;101854;-80
2023/11/24 00:46:35;;;;;;;19.60;8.23;;;;;;;5.24;81.35;99008.00;124311;1109;103290;-81
2023/11/24 00:49:06;;;;;;;18.07;8.33;;;;;;;5.24;80.81;99010.59;124205;1109;103964;-78
2023/11/24 00:51:38;;;;;;;18.47;8.37;;;;;;;5.24;80.28;99004.52;124212;1108;104258;-80
2023/11/24 00:54:10;;;;;;;19.07;8.63;;;;;;;5.23;80.65;98995.81;124132;1109;104185;-79
2023/11/24 00:56:41;;;;;;;19.07;8.50;;;;;;;5.23;80.46;99001.02;124133;1109;104192;-79
2023/11/24 00:59:13;;;;;;;18.43;7.83;;;;;;;5.25;80.40;98998.47;124225;1108;104223;-79
2023/11/24 01:01:44;;;;;;;17.93;8.07;;;;;;;5.25;80.71;98995.86;124016;1109;104245;-79
2023/11/24 01:04:16;;;;;;;17.80;7.37;;;;;;;5.25;80.18;98993.27;124201;1106;104204;-79
2023/11/24 01:06:48;;;;;;;16.40;7.25;;;;;;;5.25;80.08;98994.17;124204;1109;104268;-78
2023/11/24 01:09:19;;;;;;;19.53;7.93;;;;;;;5.27;80.27;98989.89;124173;1108;103228;-79
2023/11/24 01:11:51;;;;;;;19.77;8.40;;;;;;;5.26;80.15;98985.52;124168;1107;102066;-79
2023/11/24 01:14:22;;;;;;;18.23;8.60;;;;;;;5.26;80.60;98988.11;124089;1109;104086;-79
2023/11/24 01:16:54;;;;;;;18.60;8.57;;;;;;;5.25;80.18;98977.66;124170;1108;102087;-79
2023/11/24 01:19:25;;;;;;;17.77;7.43;;;;;;;5.22;80.48;98975.86;124154;1108;104239;-80
2023/11/24 01:21:57;;;;;;;17.23;8.03;;;;;;;5.20;80.22;98970.61;124072;1107;102338;-79
2023/11/24 01:24:28;;;;;;;15.97;7.20;;;;;;;5.16;80.29;98965.27;124047;1108;104236;-78
2023/11/24 01:27:02;;;;;;;15.87;7.33;;;;;;;5.15;80.33;98971.28;123951;1105;107636;-79
2023/11/24 01:29:33;;;;;;;18.57;7.83;;;;;;;5.12;80.36;98977.25;123905;1109;104291;-78
2023/11/24 01:32:05;;;;;;;17.27;7.63;;;;;;;5.12;80.08;98982.45;123959;1109;104236;-78
2023/11/24 01:34:37;;;;;;;17.80;8.53;;;;;;;5.11;80.48;98966.80;123918;1109;104316;-77
2023/11/24 01:37:08;;;;;;;20.25;8.60;;;;;;;5.07;80.06;98958.03;124103;1109;102045;-78
2023/11/24 01:39:40;;;;;;;23.23;9.47;;;;;;;5.06;79.95;98952.78;124105;1107;104191;-77
2023/11/24 01:42:11;;;;;;;21.50;8.93;;;;;;;5.04;80.35;98938.00;124240;1109;102258;-79
2023/11/24 01:44:43;;;;;;;29.23;12.60;;;;;;;5.03;79.93;98940.55;124222;1108;104281;-79
2023/11/24 01:47:14;;;;;;;26.00;11.50;;;;;;;5.02;80.39;98934.48;124207;1109;102138;-79
2023/11/24 01:49:46;;;;;;;23.50;9.83;;;;;;;4.99;80.14;98925.70;124153;1109;102133;-79
2023/11/24 01:52:19;;;;;;;21.40;9.10;;;;;;;4.98;79.78;98924.80;124218;1109;104079;-78
2023/11/24 01:54:53;;;;;;;17.60;8.30;;;;;;;4.97;79.64;98916.95;124242;1109;104211;-80
2023/11/24 01:57:25;;;;;;;16.50;6.87;;;;;;;4.97;79.74;98915.27;124274;1105;104230;-79
2023/11/24 01:59:57;;;;;;;17.37;7.87;;;;;;;4.96;79.90;98903.09;124227;1109;104214;-79
2023/11/24 02:02:30;;;;;;;17.67;7.93;;;;;;;4.95;79.88;98890.91;124229;1109;102055;-79
2023/11/24 02:05:01;;;;;;;15.53;6.40;;;;;;;4.97;79.39;98889.27;124140;1108;104399;-79
2023/11/24 02:07:33;;;;;;;14.70;6.13;;;;;;;4.99;79.15;98884.11;124065;1105;104182;-78
2023/11/24 02:10:06;;;;;;;;;;;;;;;5.02;79.39;98872.09;124116;1105;102054;-79
2023/11/24 02:12:37;;;;;;;14.80;6.27;;;;;;;5.04;79.89;98869.53;124267;1109;102576;-79
2023/11/24 02:15:11;;;;;;;15.10;6.20;;;;;;;5.07;79.83;98860.96;124151;1109;104212;-78
2023/11/24 02:17:42;;;;;;;15.20;6.87;;;;;;;5.07;79.35;98861.83;123894;1108;101918;-78
2023/11/24 02:20:18;;;;;;;14.95;6.20;;;;;;;5.07;79.88;98863.56;123809;1109;104197;-78
2023/11/24 02:22:49;;;;;;;16.00;6.40;;;;;;;5.07;79.57;98859.23;123777;1109;104322;-78
2023/11/24 02:25:21;;;;;;;14.70;6.53;;;;;;;5.07;79.76;98848.83;123867;1109;104328;-78
2023/11/24 02:27:52;;;;;;;12.53;6.30;;;;;;;5.09;79.65;98841.08;123817;1109;102750;-78
2023/11/24 02:30:24;;;;;;;12.43;5.73;;;;;;;5.10;79.47;98838.53;123846;1105;104178;-78
2023/11/24 02:32:56;;;;;;;15.17;5.90;;;;;;;5.11;79.58;98827.30;124010;1109;104239;-79
2023/11/24 02:35:29;;;;;;;10.80;5.40;;;;;;;5.14;79.32;98818.69;124092;1109;104252;-79
2023/11/24 02:38:02;;;;;;;13.07;5.47;;;;;;;5.15;79.62;98808.34;123971;1108;101848;-78
2023/11/24 02:40:33;;;;;;;11.47;5.30;;;;;;;5.18;79.48;98802.36;123849;1109;104211;-78
2023/11/24 02:43:06;;;;;;;11.37;5.17;;;;;;;5.20;79.60;98803.28;123947;1109;104082;-79
2023/11/24 02:45:37;;;;;;;12.60;5.05;;;;;;;5.20;78.80;98798.08;123960;1109;104208;-78
2023/11/24 02:48:10;;;;;;;11.85;5.10;;;;;;;5.25;79.13;98804.32;123805;1105;104214;-78
2023/11/24 02:50:42;;;;;;;10.53;4.97;;;;;;;5.30;78.78;98805.33;124015;1105;102035;-78
2023/11/24 02:53:14;;;;;;;11.33;4.93;;;;;;;5.36;79.06;98815.01;124031;1105;102033;-78
2023/11/24 02:55:46;;;;;;;9.73;4.47;;;;;;;5.39;79.09;98809.89;123876;1109;102233;-78
2023/11/24 02:58:20;;;;;;;10.27;4.73;;;;;;;5.43;79.43;98797.89;123941;1109;102838;-77
2023/11/24 03:00:52;;;;;;;8.83;4.20;;;;;;;5.44;79.24;98800.53;124040;1105;104213;-79
2023/11/24 03:03:24;;;;;;;11.05;4.80;;;;;;;5.51;79.21;98806.78;123965;1105;104275;-77
2023/11/24 03:05:55;;;;;;;11.57;4.73;;;;;;;5.53;78.70;98797.29;123809;1105;101988;-77
2023/11/24 03:08:27;;;;;;;10.20;5.13;;;;;;;5.56;78.79;98792.17;123917;1106;102087;-79
2023/11/24 03:10:58;;;;;;;9.47;4.57;;;;;;;5.61;78.92;98797.51;123948;1105;101951;-79
2023/11/24 03:13:29;;;;;;;9.77;4.70;;;;;;;5.64;78.64;98788.09;124084;1105;102295;-79
2023/11/24 03:16:01;;;;;;;8.37;3.97;;;;;;;5.69;78.97;98778.68;124096;1105;104246;-79
2023/11/24 03:18:33;;;;;;;9.97;4.20;;;;;;;5.73;78.60;98775.33;123934;1107;104338;-79
2023/11/24 03:21:04;;;;;;;8.73;4.40;;;;;;;5.76;78.54;98775.42;123966;1105;104245;-78
2023/11/24 03:23:36;;;;;;;12.67;5.10;;;;;;;5.80;78.49;98771.16;123935;1106;104286;-78
2023/11/24 03:26:11;;;;;;;10.20;4.70;;;;;;;5.80;78.62;98772.86;123898;1108;104277;-77
2023/11/24 03:28:43;;;;;;;10.17;4.53;;;;;;;5.81;78.29;98772.91;123821;1106;102683;-79
2023/11/24 03:31:14;;;;;;;10.93;4.17;;;;;;;5.80;78.49;98767.66;124097;1109;104223;-78
2023/11/24 03:33:47;;;;;;;9.83;4.83;;;;;;;5.81;78.49;98772.91;124027;1109;104227;-78
2023/11/24 03:36:19;;;;;;;8.10;3.87;;;;;;;5.82;78.35;98771.20;123896;1105;104220;-77
2023/11/24 03:38:50;;;;;;;9.60;4.17;;;;;;;5.82;78.25;98769.47;123859;1105;102036;-78
2023/11/24 03:41:22;;;;;;;9.40;4.10;;;;;;;5.83;77.88;98759.94;123922;1108;101874;-78
2023/11/24 03:43:53;;;;;;;7.63;3.80;;;;;;;5.83;77.58;98757.33;123897;1109;104330;-78
2023/11/24 03:46:25;;;;;;;7.27;3.63;;;;;;;5.83;77.95;98749.52;123788;1108;102115;-78
2023/11/24 03:48:56;;;;;;;8.07;3.80;;;;;;;5.83;78.10;98753.03;123675;1108;104326;-78
2023/11/24 03:51:28;;;;;;;7.77;3.80;;;;;;;5.82;77.86;98751.25;123824;1109;102114;-78
2023/11/24 03:53:59;;;;;;;7.30;3.90;;;;;;;5.84;78.10;98743.48;123818;1106;104230;-78
2023/11/24 03:56:31;;;;;;;8.43;3.63;;;;;;;5.83;78.33;98741.71;123665;1109;104354;-78
2023/11/24 03:59:03;;;;;;;6.60;3.27;;;;;;;5.83;78.01;98740.02;123649;1105;102179;-77
2023/11/24 04:01:35;;;;;;;8.60;3.47;;;;;;;5.84;77.45;98740.88;123724;1105;104297;-77
2023/11/24 04:04:07;;;;;;;9.25;3.70;;;;;;;5.84;78.17;98738.28;123853;1109;104278;-78
2023/11/24 04:06:39;;;;;;;7.70;3.80;;;;;;;5.83;77.76;98733.91;123892;1106;104271;-78
2023/11/24 04:09:10;;;;;;;7.10;4.00;;;;;;;5.83;77.75;98731.30;123820;1108;103584;-78
2023/11/24 04:11:42;;;;;;;6.60;3.53;;;;;;;5.82;77.49;98717.41;123839;1108;104304;-78
2023/11/24 04:14:14;;;;;;;7.77;4.20;;;;;;;5.82;77.60;98711.34;123753;1108;104198;-77
2023/11/24 04:16:46;;;;;;;8.30;3.87;;;;;;;5.81;77.80;98719.98;123674;1105;104249;-77
2023/11/24 04:19:17;;;;;;;7.80;3.57;;;;;;;5.81;77.75;98727.78;123671;1108;101953;-78
2023/11/24 04:21:49;;;;;;;7.65;3.90;;;;;;;5.81;77.81;98736.47;123715;1108;104252;-77
2023/11/24 04:24:23;;;;;;;11.87;4.23;;;;;;;5.81;77.63;98732.99;123667;1109;104313;-77
2023/11/24 04:26:54;;;;;;;8.68;3.70;;;;;;;5.81;77.47;98725.19;123736;1105;104188;-78
2023/11/24 04:29:26;;;;;;;6.70;3.80;;;;;;;5.81;77.50;98718.25;123639;1106;102495;-77
2023/11/24 04:31:57;;;;;;;5.73;3.57;;;;;;;5.82;77.36;98725.22;123708;1107;104259;-77
2023/11/24 04:34:29;;;;;;;9.20;3.90;;;;;;;5.85;77.33;98722.70;123704;1105;104437;-77
2023/11/24 04:37:02;;;;;;;9.70;3.70;;;;;;;5.87;77.43;98722.74;123750;1106;102337;-78
2023/11/24 04:39:34;;;;;;;5.75;3.30;;;;;;;5.89;77.29;98723.66;123714;1108;101884;-78
2023/11/24 04:42:06;;;;;;;8.30;3.75;;;;;;;5.90;77.23;98718.48;123724;1109;104751;-78
2023/11/24 04:44:37;;;;;;;7.13;3.70;;;;;;;5.91;77.34;98722.86;123720;1106;101925;-77
2023/11/24 04:47:10;;;;;;;7.73;4.10;;;;;;;5.92;77.45;98708.11;123708;1109;102109;-77
2023/11/24 04:49:43;;;;;;;9.27;4.10;;;;;;;5.94;77.28;98701.24;123720;1106;104182;-77
2023/11/24 04:52:14;;;;;;;8.70;3.67;;;;;;;5.93;76.78;98702.94;123733;1109;104195;-78
2023/11/24 04:54:46;;;;;;;8.63;3.73;;;;;;;5.94;77.56;98704.72;123683;1105;104195;-77
2023/11/24 04:57:17;;;;;;;8.43;3.90;;;;;;;5.94;76.82;98696.03;123741;1108;104670;-77
2023/11/24 04:59:48;;;;;;;8.80;4.40;;;;;;;5.95;77.14;98697.78;123822;1109;104182;-78
2023/11/24 05:02:20;;;;;;;11.10;4.20;;;;;;;5.95;76.96;98692.56;124012;1105;104101;-79
2023/11/24 05:04:51;;;;;;;8.83;3.90;;;;;;;5.95;77.05;98697.78;124318;1106;102482;-79
2023/11/24 05:07:24;;;;;;;11.60;4.47;;;;;;;5.96;76.55;98701.28;124315;1106;104240;-79
2023/11/24 05:09:56;;;;;;;12.03;4.37;;;;;;;5.96;76.83;98689.13;124141;1109;101978;-78
2023/11/24 05:12:27;;;;;;;13.00;4.70;;;;;;;5.97;77.06;98690.94;124063;1105;104266;-79
2023/11/24 05:14:59;;;;;;;7.60;3.97;;;;;;;5.98;77.10;98686.60;123945;1109;103298;-78
2023/11/24 05:17:30;;;;;;;12.23;4.57;;;;;;;5.99;76.80;98688.38;123994;1106;104188;-78
2023/11/24 05:20:02;;;;;;;25.43;5.47;;;;;;;5.99;76.74;98678.83;123928;1109;104254;-77
2023/11/24 05:22:33;;;;;;;13.43;4.63;;;;;;;6.00;76.97;98682.30;124012;1109;104191;-77
2023/11/24 05:25:06;;;;;;;13.87;5.00;;;;;;;5.99;76.82;98673.63;124180;1106;104204;-78
2023/11/24 05:27:38;;;;;;;11.40;4.70;;;;;;;6.01;76.53;98671.05;124145;1106;104188;-78
2023/11/24 05:30:11;;;;;;;14.45;4.90;;;;;;;6.00;76.78;98667.58;124144;1108;104274;-79
2023/11/24 05:32:44;;;;;;;14.57;5.00;;;;;;;6.01;76.74;98665.85;123919;1105;102073;-78
2023/11/24 05:35:18;;;;;;;9.47;4.47;;;;;;;6.02;76.70;98663.28;124339;1106;104216;-79
2023/11/24 05:37:50;;;;;;;11.93;4.90;;;;;;;6.04;76.58;98664.19;124341;1109;102047;-81
2023/11/24 05:40:21;;;;;;;11.80;5.10;;;;;;;6.07;76.70;98671.20;124350;1105;102999;-80
2023/11/24 05:42:53;;;;;;;14.15;4.95;;;;;;;6.09;76.93;98666.91;124408;1109;104322;-80
2023/11/24 05:45:24;;;;;;;11.17;4.60;;;;;;;6.13;76.54;98666.15;124376;1106;102828;-80
2023/11/24 05:47:56;;;;;;;13.77;5.67;;;;;;;6.17;76.53;98672.30;124512;1106;101987;-82
2023/11/24 05:50:27;;;;;;;16.00;5.10;;;;;;;6.20;76.66;98673.28;124381;1108;104160;-78
2023/11/24 05:52:59;;;;;;;12.53;4.93;;;;;;;6.24;76.97;98671.62;124244;1108;102326;-79
2023/11/24 05:55:30;;;;;;;12.63;5.07;;;;;;;6.27;76.74;98669.95;115701;1105;10001189;-80
2023/11/24 05:58:05;;;;;;;12.47;5.27;;;;;;;6.33;76.58;98664.02;124416;1109;104214;-78
2023/11/24 06:00:37;;;;;;;12.63;5.53;;;;;;;6.38;76.52;98669.33;124306;1106;102116;-75
2023/11/24 06:03:11;;;;;;;12.67;5.17;;;;;;;6.39;76.63;98663.26;124149;1106;104303;-75
2023/11/24 06:05:42;;;;;;;17.43;5.70;;;;;;;6.44;76.57;98666.87;124396;1108;104256;-75
2023/11/24 06:08:14;;;;;;;14.10;5.73;;;;;;;6.50;76.78;98668.71;124615;1109;104194;-76
2023/11/24 06:10:47;;;;;;;14.60;5.13;;;;;;;6.53;76.33;98672.30;124528;1109;104256;-74
2023/11/24 06:13:19;;;;;;;11.47;4.70;;;;;;;6.58;76.34;98660.23;124273;1109;104248;-76
2023/11/24 06:15:51;;;;;;;15.90;5.85;;;;;;;6.64;76.26;98660.37;124404;1109;103904;-75
2023/11/24 06:18:22;;;;;;;14.77;4.70;;;;;;;6.71;76.62;98665.72;124407;1108;102991;-75
2023/11/24 06:20:54;;;;;;;11.43;4.30;;;;;;;6.76;76.12;98664.08;124143;1105;104281;-74
2023/11/24 06:23:25;;;;;;;13.13;4.75;;;;;;;6.84;76.45;98663.41;115725;1109;10001221;-74
2023/11/24 06:25:57;;;;;;;14.40;4.47;;;;;;;6.92;75.97;98673.09;124330;1105;102131;-75
2023/11/24 06:28:28;;;;;;;11.50;4.87;;;;;;;6.94;75.64;98658.39;124260;1108;104267;-74
2023/11/24 06:31:01;;;;;;;14.63;5.20;;;;;;;6.97;76.12;98659.32;124151;1109;102908;-74
2023/11/24 06:33:32;;;;;;;9.50;3.70;;;;;;;7.01;75.65;98662.86;124015;1109;104204;-75
2023/11/24 06:36:04;;;;;;;5.50;3.20;;;;;;;7.08;75.45;98659.54;124211;1109;104127;-77
2023/11/24 06:38:35;;;;;;;7.97;3.07;;;;;;;7.15;75.61;98647.49;124151;1109;103618;-75
2023/11/24 06:41:09;;;;;;;8.07;2.87;;;;;;;7.25;75.73;98659.01;123980;1109;102464;-75
2023/11/24 06:43:40;;;;;;;6.93;2.40;;;;;;;7.36;75.59;98657.48;123998;1105;104210;-77
2023/11/24 06:46:13;;;;;;;7.50;2.37;;;;;;;7.53;74.43;98660.41;124054;1108;102794;-73
2023/11/24 06:48:44;;;;;;;5.20;2.67;;;;;;;7.70;73.56;98665.93;124384;1105;102053;-75
2023/11/24 06:51:17;;;;;;;3.47;2.30;;;;;;;7.86;74.52;98670.55;124433;1106;102691;-76
2023/11/24 06:53:54;;;;;;;6.10;2.20;;;;;;;7.96;73.50;98650.68;124327;1109;102975;-74
2023/11/24 06:56:31;;;;;;;4.97;2.10;;;;;;;8.07;73.28;98650.86;124360;1105;104335;-75
2023/11/24 06:59:07;;;;;;;3.50;2.15;;;;;;;8.15;72.16;98653.59;124343;1106;101999;-77
2023/11/24 07:01:39;;;;;;;6.83;1.93;;;;;;;8.24;71.86;98652.03;124362;1109;104472;-78
2023/11/24 07:04:16;;;;;;;4.50;2.10;;;;;;;8.30;71.80;98648.61;124410;1108;103145;-79
2023/11/24 07:06:48;;;;;;;2.53;1.80;;;;;;;8.40;71.74;98647.90;125017;1105;102970;-78
2023/11/24 07:09:21;;;;;;;2.80;1.70;;;;;;;8.45;71.68;98654.09;125164;1106;103417;-78
2023/11/24 07:11:56;;;;;;;2.53;2.00;;;;;;;8.49;72.25;98646.30;124993;1109;103270;-78
2023/11/24 07:14:33;;;;;;;4.50;1.80;;;;;;;8.49;71.94;98634.09;124335;1109;102135;-77
2023/11/24 07:17:13;;;;;;;2.60;1.77;;;;;;;8.52;71.56;98628.05;124212;1107;102188;-78
2023/11/24 07:19:45;;;;;;;2.63;1.90;;;;;;;8.55;71.45;98636.80;124242;1109;102291;-77
2023/11/24 07:22:22;;;;;;;4.20;1.97;;;;;;;8.59;71.19;98645.58;124380;1109;104718;-77
2023/11/24 07:24:55;;;;;;;6.17;2.30;;;;;;;8.64;71.15;98630.83;124405;1105;102347;-79
2023/11/24 07:27:27;;;;;;;2.93;1.97;;;;;;;8.68;70.73;98630.03;124163;1106;103045;-76
2023/11/24 07:29:59;;;;;;;4.57;2.23;;;;;;;8.72;70.56;98626.57;124330;1109;102670;-77
2023/11/24 07:32:33;;;;;;;4.20;2.50;;;;;;;8.75;70.62;98623.13;124453;1109;102874;-76
2023/11/24 07:35:06;;;;;;;2.90;2.03;;;;;;;8.77;70.60;98624.02;124382;1108;102205;-78
2023/11/24 07:37:44;;;;;;;4.70;2.30;;;;;;;8.80;71.23;98609.27;124471;1105;103508;-78
2023/11/24 07:40:21;;;;;;;6.10;2.30;;;;;;;8.84;70.64;98604.07;124207;1109;102427;-76
2023/11/24 07:42:54;;;;;;;3.30;2.20;;;;;;;8.85;70.18;98606.70;124206;1108;102128;-77
2023/11/24 07:45:26;;;;;;;7.70;2.70;;;;;;;8.88;70.73;98603.23;124221;1109;104222;-76
2023/11/24 07:48:05;;;;;;;5.37;2.33;;;;;;;8.90;70.33;98598.92;124339;1105;102798;-74
2023/11/24 07:51:05;;;;;;;6.23;2.47;;;;;;;8.92;70.25;98592.82;124299;1106;103554;-78
2023/11/24 07:53:41;;;;;;;4.87;2.57;;;;;;;8.93;70.59;98589.36;124083;1110;102142;-76
2023/11/24 07:56:18;;;;;;;5.17;2.40;;;;;;;8.95;70.39;98582.39;124491;1109;102871;-78
2023/11/24 07:59:02;;;;;;;3.90;2.40;;;;;;;8.97;68.50;98588.52;124378;1108;104197;-77
2023/11/24 08:04:42;;;;;;;2.57;2.20;;;;;;;9.04;69.77;98593.81;124351;1109;102636;-78
2023/11/24 08:07:21;;;;;;;4.07;2.30;;;;;;;9.07;69.41;98593.84;125024;1109;102530;-77
2023/11/24 08:10:11;;;;;;;3.42;2.25;;;;;;;9.09;69.57;98593.02;124305;1109;104287;-78
2023/11/24 08:12:52;;;;;;;5.87;2.30;;;;;;;9.11;69.66;98595.65;124738;1107;102154;-80
2023/11/24 08:15:24;;;;;;;6.27;2.37;;;;;;;9.14;69.73;98595.69;124141;1108;103780;-77
2023/11/24 08:17:58;;;;;;;4.40;2.53;;;;;;;9.14;69.25;98583.47;124358;1109;102675;-79
2023/11/24 08:20:36;;;;;;;4.70;2.70;;;;;;;9.16;69.21;98587.00;124386;1109;102458;-78
2023/11/24 08:23:15;;;;;;;7.03;2.60;;;;;;;9.15;68.36;98585.23;124164;1109;102847;-78
2023/11/24 08:25:48;;;;;;;4.80;2.17;;;;;;;9.17;68.44;98586.12;124322;1106;110917;-77
2023/11/24 08:28:20;;;;;;;6.60;2.40;;;;;;;9.19;68.10;98580.91;124244;1108;104823;-77
2023/11/24 08:30:54;;;;;;;4.70;2.60;;;;;;;9.23;68.50;98579.22;124196;1107;103656;-76
2023/11/24 08:33:29;;;;;;;3.17;2.20;;;;;;;9.25;67.85;98580.97;124245;1108;102412;-76
2023/11/24 08:36:10;;;;;;;5.73;2.60;;;;;;;9.29;68.23;98579.28;124308;1109;103486;-77
2023/11/24 08:38:47;;;;;;;6.47;3.00;;;;;;;9.33;68.03;98575.81;124180;1109;104320;-78
2023/11/24 08:41:22;;;;;;;4.53;2.50;;;;;;;9.37;67.87;98572.38;124423;1109;104213;-80
2023/11/24 08:43:54;;;;;;;5.13;2.30;;;;;;;9.41;67.48;98570.65;124227;1109;104300;-77
2023/11/24 08:46:34;;;;;;;4.03;2.50;;;;;;;9.46;67.72;98561.98;124214;1109;102995;-78
2023/11/24 08:49:10;;;;;;;6.43;2.50;;;;;;;9.55;67.56;98563.79;124355;1106;103275;-77
2023/11/24 08:51:53;;;;;;;8.30;3.00;;;;;;;9.59;67.75;98557.73;124414;1108;102291;-76
2023/11/24 08:54:47;;;;;;;4.30;2.60;;;;;;;9.64;67.50;98561.25;123964;1105;104384;-74
2023/11/24 08:57:20;;;;;;;6.65;2.95;;;;;;;9.73;67.61;98563.08;123948;1107;104197;-79
2023/11/24 08:59:57;;;;;;;6.70;3.40;;;;;;;9.79;67.40;98550.03;124014;1106;103394;-75
2023/11/24 09:02:31;;;;;;;9.13;3.23;;;;;;;9.84;66.79;98553.55;123991;1107;104127;-73
2023/11/24 09:05:40;;;;;;;;;;;;;;;;;;;;;
2023/11/24 09:08:40;;;;;;;11.07;3.80;;;;;;;9.94;67.19;98540.52;124195;1109;104251;-77
2023/11/24 09:11:14;;;;;;;7.57;3.60;;;;;;;10.02;67.11;98525.72;124162;1105;102255;-76
2023/11/24 09:13:51;;;;;;;10.23;3.67;;;;;;;10.03;66.79;98506.52;123854;1109;104244;-76
2023/11/24 09:16:23;;;;;;;10.93;3.67;;;;;;;10.07;66.61;98506.55;124083;1109;104063;-79
2023/11/24 09:18:57;;;;;;;7.50;3.40;;;;;;;10.08;66.47;98505.69;124283;1109;104204;-78
2023/11/24 09:21:37;;;;;;;;;;;;;;;10.12;66.11;98488.23;124532;1109;102668;-79
2023/11/24 09:24:14;;;;;;;8.73;3.03;;;;;;;10.17;66.42;98483.02;124401;1109;102603;-80
2023/11/24 09:26:49;;;;;;;7.67;3.23;;;;;;;10.22;65.91;98481.28;124207;1109;102189;-74
2023/11/24 09:29:25;;;;;;;9.20;3.40;;;;;;;10.28;66.29;98470.83;123912;1108;104188;-74
2023/11/24 09:32:04;;;;;;;5.63;3.10;;;;;;;10.33;66.21;98474.40;124053;1109;104322;-78
2023/11/24 09:34:43;;;;;;;7.80;3.27;;;;;;;10.38;65.91;98470.04;124199;1109;104204;-77
2023/11/24 09:37:22;;;;;;;5.60;3.17;;;;;;;10.40;66.06;98464.80;124148;1108;118314;-75
2023/11/24 09:39:56;;;;;;;10.07;2.90;;;;;;;10.40;65.31;98457.80;124013;1108;102415;-77
2023/11/24 09:42:32;;;;;;;;;;;;;;;10.37;64.96;98470.03;124280;1108;104288;-75
2023/11/24 09:45:14;;;;;;;5.63;2.90;;;;;;;10.30;65.00;98461.24;124197;1109;102950;-77
2023/11/24 09:47:49;;;;;;;6.03;2.73;;;;;;;10.24;65.05;98466.46;124146;1108;102170;-76
2023/11/24 09:50:25;;;;;;;6.97;2.90;;;;;;;10.22;64.50;98460.31;123975;1109;102144;-74
2023/11/24 09:52:58;;;;;;;5.05;3.00;;;;;;;10.21;65.15;98466.45;124047;1107;104309;-78
2023/11/24 09:55:30;;;;;;;6.35;2.70;;;;;;;10.16;64.54;98463.80;124355;1109;103041;-77
2023/11/24 09:58:02;;;;;;;5.57;2.97;;;;;;;10.21;64.59;98459.45;124140;1108;111762;-75
2023/11/24 10:00:52;;;;;;;5.93;2.80;;;;;;;10.24;64.91;98455.97;124215;1109;103281;-77
2023/11/24 10:03:40;;;;;;;6.83;3.00;;;;;;;10.30;64.74;98456.00;124405;1109;103430;-76
2023/11/24 10:06:13;;;;;;;5.20;3.00;;;;;;;10.30;64.38;98458.62;124268;1109;102510;-76
2023/11/24 10:08:45;;;;;;;10.75;3.50;;;;;;;10.28;64.37;98465.58;124151;1108;104210;-75
2023/11/24 10:11:27;;;;;;;10.27;3.37;;;;;;;10.29;64.08;98462.10;124160;1109;103530;-77
2023/11/24 10:14:03;;;;;;;10.80;3.53;;;;;;;10.29;63.92;98458.62;124326;1109;104265;-75
2023/11/24 10:16:43;;;;;;;6.40;3.27;;;;;;;10.29;62.66;98469.10;124262;1109;104233;-78
2023/11/24 10:19:15;;;;;;;6.27;2.80;;;;;;;10.31;63.32;98462.11;124178;1109;104470;-75
2023/11/24 10:21:48;;;;;;;7.67;3.50;;;;;;;10.34;63.81;98457.78;124115;1109;104236;-76
2023/11/24 10:24:22;;;;;;;6.47;2.70;;;;;;;10.38;63.22;98456.06;124201;1109;104239;-77
2023/11/24 10:27:08;;;;;;;5.87;3.40;;;;;;;10.41;63.37;98456.08;124234;1109;103240;-74
2023/11/24 10:29:43;;;;;;;5.43;2.80;;;;;;;10.46;63.34;98453.47;124290;1109;102674;-75
2023/11/24 10:32:23;;;;;;;8.33;3.27;;;;;;;10.51;63.15;98441.24;124290;1106;102958;-76
2023/11/24 10:35:00;;;;;;;9.83;3.83;;;;;;;10.53;62.99;98429.90;124208;1108;102092;-75
2023/11/24 10:37:34;;;;;;;6.67;3.05;;;;;;;10.60;63.06;98436.02;124457;1109;102767;-78
2023/11/24 10:40:13;;;;;;;9.27;4.00;;;;;;;10.68;62.74;98436.91;124337;1109;104201;-76
2023/11/24 10:42:50;;;;;;;10.43;3.87;;;;;;;10.75;62.91;98428.19;124306;1109;103772;-78
2023/11/24 10:45:24;;;;;;;7.33;3.40;;;;;;;10.81;62.60;98422.05;124395;1109;104354;-77
2023/11/24 10:48:09;;;;;;;6.70;3.20;;;;;;;10.89;62.49;98419.44;124445;1109;104179;-75
2023/11/24 10:51:02;;;;;;;8.97;3.47;;;;;;;10.99;62.44;98428.22;124392;1108;104203;-77
2023/11/24 10:53:44;;;;;;;8.70;3.13;;;;;;;11.11;62.56;98429.09;124342;1109;103167;-77
2023/11/24 10:56:20;;;;;;;8.40;3.40;;;;;;;11.20;62.28;98424.72;124334;1108;102521;-77
2023/11/24 10:58:55;;;;;;;8.90;3.43;;;;;;;11.25;62.48;98415.08;124394;1106;104175;-80
2023/11/24 11:01:27;;;;;;;7.15;3.10;;;;;;;11.31;62.30;98405.47;124413;1106;104262;-78
2023/11/24 11:04:00;;;;;;;6.77;3.20;;;;;;;11.37;61.89;98407.20;124430;1109;102376;-78
2023/11/24 11:06:43;;;;;;;8.33;3.17;;;;;;;11.39;61.92;98401.94;124593;1105;102545;-76
2023/11/24 11:09:29;;;;;;;7.35;3.30;;;;;;;11.44;61.63;98400.20;124378;1109;102754;-75
2023/11/24 11:12:39;;;;;;;5.83;3.10;;;;;;;11.47;61.73;98403.69;124395;1109;104067;-77
2023/11/24 11:15:15;;;;;;;6.87;3.33;;;;;;;11.54;61.54;98401.06;124054;1112;104346;-76
2023/11/24 11:18:06;;;;;;;5.77;3.00;;;;;;;11.60;61.52;98401.91;124257;1109;104249;-80
2023/11/24 11:20:40;;;;;;;7.40;3.03;;;;;;;11.84;61.79;98402.72;124312;1109;102565;-74
2023/11/24 11:23:17;;;;;;;6.53;2.90;;;;;;;12.04;61.51;98400.06;124333;1109;104268;-77
2023/11/24 11:25:53;;;;;;;7.77;3.03;;;;;;;12.19;61.57;98386.86;124440;1109;102264;-77
2023/11/24 11:28:43;;;;;;;5.03;2.73;;;;;;;12.35;60.95;98385.02;124496;1109;103330;-76
2023/11/24 11:31:37;;;;;;;6.97;3.10;;;;;;;12.50;61.02;98384.06;124373;1109;103088;-78
2023/11/24 11:34:20;;;;;;;8.05;3.62;;;;;;;12.61;60.45;98383.14;124474;1109;104361;-79
2023/11/24 11:37:11;;;;;;;7.27;3.40;;;;;;;12.64;59.94;98388.38;124286;1106;102315;-77
2023/11/24 11:39:53;;;;;;;5.97;3.10;;;;;;;12.64;60.49;98378.72;124133;1105;104185;-76
2023/11/24 11:42:51;;;;;;;8.93;3.37;;;;;;;12.63;59.64;98363.81;124424;1109;104220;-76
2023/11/24 11:45:29;;;;;;;6.83;3.23;;;;;;;12.63;59.90;98361.17;124172;1109;103104;-77
2023/11/24 11:48:04;;;;;;;6.63;3.17;;;;;;;12.59;58.63;98373.48;125609;1106;102140;-76
2023/11/24 11:50:46;;;;;;;10.07;4.10;;;;;;;12.54;58.22;98379.66;125577;1106;103033;-76
2023/11/24 11:53:28;;;;;;;12.10;3.93;;;;;;;12.49;59.25;98386.70;125544;1108;102095;-78
2023/11/24 11:56:06;;;;;;;10.63;4.17;;;;;;;12.43;57.74;98395.49;125327;1108;102066;-77
2023/11/24 11:58:49;;;;;;;5.07;2.47;;;;;;;12.35;57.52;98389.41;125130;1108;103299;-78